Time,TemperatureF,DewpointF,PressureIn,WindDirection,WindDirectionDegrees,WindSpeedMPH,WindSpeedGustMPH,Humidity,HourlyPrecipIn,Conditions,Clouds,dailyrainin,SoftwareType,DateUTC
2013-05-02 00:03:00,63.7,56.0,30.15,WSW,257,0.0,0.0,77,0.00,,,0.00,weatherlink.com 1.10,2013-05-02 04:03:00,
2013-05-02 00:18:00,63.6,55.0,30.15,WNW,283,0.0,2.0,74,0.00,,,0.00,weatherlink.com 1.10,2013-05-02 04:18:00,
2013-05-02 00:33:00,63.4,56.0,30.15,WNW,283,0.0,0.0,77,0.00,,,0.00,weatherlink.com 1.10,2013-05-02 04:33:00,
2013-05-02 00:48:00,63.1,56.0,30.15,WNW,283,0.0,0.0,77,0.00,,,0.00,weatherlink.com 1.10,2013-05-02 04:48:00,
2013-05-02 01:03:00,62.8,56.0,30.14,WNW,283,0.0,0.0,79,0.00,,,0.00,weatherlink.com 1.10,2013-05-02 05:03:00,
2013-05-02 01:18:00,62.5,56.0,30.14,WNW,284,0.0,0.0,79,0.00,,,0.00,weatherlink.com 1.10,2013-05-02 05:18:00,
2013-05-02 01:33:00,61.8,55.0,30.14,WNW,284,0.0,0.0,79,0.00,,,0.00,weatherlink.com 1.10,2013-05-02 05:33:00,
2013-05-02 01:48:00,61.0,55.0,30.14,WNW,284,0.0,0.0,81,0.00,,,0.00,weatherlink.com 1.10,2013-05-02 05:48:00,
2013-05-02 02:03:00,60.6,55.0,30.14,WNW,284,0.0,0.0,83,0.00,,,0.00,weatherlink.com 1.10,2013-05-02 06:03:00,
2013-05-02 02:18:00,60.2,55.0,30.13,WNW,284,0.0,0.0,82,0.00,,,0.00,weatherlink.com 1.10,2013-05-02 06:18:00,
2013-05-02 02:33:00,59.9,55.0,30.13,WNW,284,0.0,0.0,83,0.00,,,0.00,weatherlink.com 1.10,2013-05-02 06:33:00,
2013-05-02 02:48:00,59.6,54.0,30.13,WNW,284,0.0,0.0,83,0.00,,,0.00,weatherlink.com 1.10,2013-05-02 06:48:00,
2013-05-02 03:04:00,59.1,55.0,30.12,WNW,284,0.0,0.0,86,0.00,,,0.00,weatherlink.com 1.10,2013-05-02 07:04:00,
2013-05-02 03:19:00,58.8,55.0,30.12,WNW,284,0.0,0.0,86,0.00,,,0.00,weatherlink.com 1.10,2013-05-02 07:19:00,
2013-05-02 03:34:00,58.5,55.0,30.12,WNW,284,0.0,0.0,87,0.00,,,0.00,weatherlink.com 1.10,2013-05-02 07:34:00,
2013-05-02 03:49:00,58.4,55.0,30.12,WNW,284,0.0,0.0,87,0.00,,,0.00,weatherlink.com 1.10,2013-05-02 07:49:00,
2013-05-02 04:04:00,58.2,54.0,30.12,WNW,284,0.0,0.0,87,0.00,,,0.00,weatherlink.com 1.10,2013-05-02 08:04:00,
2013-05-02 04:19:00,57.9,54.0,30.12,WNW,284,0.0,0.0,88,0.00,,,0.00,weatherlink.com 1.10,2013-05-02 08:19:00,
2013-05-02 04:34:00,57.6,54.0,30.12,WNW,284,0.0,0.0,89,0.00,,,0.00,weatherlink.com 1.10,2013-05-02 08:34:00,
2013-05-02 04:49:00,57.0,54.0,30.12,WNW,284,0.0,0.0,90,0.00,,,0.00,weatherlink.com 1.10,2013-05-02 08:49:00,
2013-05-02 05:04:00,56.4,54.0,30.12,WNW,284,0.0,0.0,91,0.00,,,0.00,weatherlink.com 1.10,2013-05-02 09:04:00,
2013-05-02 05:19:00,55.7,54.0,30.13,WNW,284,0.0,1.0,92,0.00,,,0.00,weatherlink.com 1.10,2013-05-02 09:19:00,
2013-05-02 05:34:00,54.9,53.0,30.13,WNW,284,0.0,0.0,93,0.00,,,0.00,weatherlink.com 1.10,2013-05-02 09:34:00,
2013-05-02 05:49:00,54.2,53.0,30.13,WNW,284,0.0,0.0,94,0.00,,,0.00,weatherlink.com 1.10,2013-05-02 09:49:00,
2013-05-02 06:04:00,53.8,52.0,30.12,WNW,284,0.0,0.0,94,0.00,,,0.00,weatherlink.com 1.10,2013-05-02 10:04:00,
2013-05-02 06:19:00,53.4,52.0,30.12,WNW,284,0.0,0.0,94,0.00,,,0.00,weatherlink.com 1.10,2013-05-02 10:19:00,
2013-05-02 06:34:00,53.1,52.0,30.12,WNW,284,0.0,0.0,95,0.00,,,0.00,weatherlink.com 1.10,2013-05-02 10:34:00,
2013-05-02 06:49:00,52.6,51.0,30.12,WNW,284,0.0,0.0,95,0.00,,,0.00,weatherlink.com 1.10,2013-05-02 10:49:00,
2013-05-02 07:04:00,52.3,51.0,30.13,WNW,285,0.0,0.0,95,0.00,,,0.00,weatherlink.com 1.10,2013-05-02 11:04:00,
2013-05-02 07:19:00,52.1,51.0,30.12,WNW,285,0.0,0.0,96,0.00,,,0.00,weatherlink.com 1.10,2013-05-02 11:19:00,
2013-05-02 07:34:00,52.1,51.0,30.12,WNW,285,0.0,0.0,96,0.00,,,0.00,weatherlink.com 1.10,2013-05-02 11:34:00,
2013-05-02 07:49:00,52.4,51.0,30.12,WNW,285,0.0,0.0,96,0.00,,,0.00,weatherlink.com 1.10,2013-05-02 11:49:00,
2013-05-02 08:04:00,53.3,53.0,30.13,WNW,285,0.0,0.0,97,0.00,,,0.00,weatherlink.com 1.10,2013-05-02 12:04:00,
2013-05-02 08:19:00,54.7,54.0,30.13,WNW,285,0.0,0.0,97,0.00,,,0.00,weatherlink.com 1.10,2013-05-02 12:19:00,
2013-05-02 08:34:00,56.0,55.0,30.15,WNW,285,0.0,0.0,96,0.00,,,0.00,weatherlink.com 1.10,2013-05-02 12:34:00,
2013-05-02 08:49:00,57.4,55.0,30.15,WNW,285,0.0,0.0,93,0.00,,,0.00,weatherlink.com 1.10,2013-05-02 12:49:00,
2013-05-02 09:04:00,58.8,56.0,30.15,WNW,285,0.0,0.0,90,0.00,,,0.00,weatherlink.com 1.10,2013-05-02 13:04:00,
2013-05-02 09:19:00,59.8,56.0,30.16,NW,304,0.0,0.0,88,0.00,,,0.00,weatherlink.com 1.10,2013-05-02 13:19:00,
2013-05-02 09:35:00,60.8,56.0,30.16,North,360,0.0,2.0,84,0.00,,,0.00,weatherlink.com 1.10,2013-05-02 13:35:00,
2013-05-02 09:49:00,61.9,56.0,30.16,North,8,0.0,2.0,81,0.00,,,0.00,weatherlink.com 1.10,2013-05-02 13:49:00,
2013-05-02 10:04:00,63.2,56.0,30.16,ENE,74,0.0,2.0,78,0.00,,,0.00,weatherlink.com 1.10,2013-05-02 14:04:00,
2013-05-02 10:19:00,65.0,56.0,30.16,ENE,70,0.0,1.0,73,0.00,,,0.00,weatherlink.com 1.10,2013-05-02 14:19:00,
2013-05-02 10:34:00,65.8,57.0,30.16,ENE,68,0.0,1.0,73,0.00,,,0.00,weatherlink.com 1.10,2013-05-02 14:34:00,
2013-05-02 10:49:00,68.3,57.0,30.16,NE,43,1.0,2.0,67,0.00,,,0.00,weatherlink.com 1.10,2013-05-02 14:49:00,
2013-05-02 11:04:00,69.1,57.0,30.16,East,81,1.0,3.0,65,0.00,,,0.00,weatherlink.com 1.10,2013-05-02 15:04:00,
2013-05-02 11:19:00,70.6,57.0,30.16,West,276,1.0,3.0,63,0.00,,,0.00,weatherlink.com 1.10,2013-05-02 15:19:00,
2013-05-02 11:35:00,72.5,59.0,30.16,NW,323,0.0,1.0,62,0.00,,,0.00,weatherlink.com 1.10,2013-05-02 15:35:00,
2013-05-02 11:50:00,73.6,58.0,30.16,NNW,328,0.0,1.0,59,0.00,,,0.00,weatherlink.com 1.10,2013-05-02 15:50:00,
2013-05-02 12:05:00,73.0,58.0,30.16,West,264,0.0,3.0,60,0.00,,,0.00,weatherlink.com 1.10,2013-05-02 16:05:00,
2013-05-02 12:20:00,72.8,59.0,30.16,West,262,0.0,1.0,63,0.00,,,0.00,weatherlink.com 1.10,2013-05-02 16:20:00,
2013-05-02 12:35:00,73.7,58.0,30.16,WNW,287,0.0,2.0,59,0.00,,,0.00,weatherlink.com 1.10,2013-05-02 16:35:00,
2013-05-02 12:50:00,74.0,59.0,30.16,SSE,157,0.0,0.0,59,0.00,,,0.00,weatherlink.com 1.10,2013-05-02 16:50:00,
2013-05-02 13:05:00,72.8,58.0,30.15,WSW,255,0.0,2.0,60,0.00,,,0.00,weatherlink.com 1.10,2013-05-02 17:05:00,
2013-05-02 13:20:00,72.7,58.0,30.15,West,279,0.0,2.0,60,0.00,,,0.00,weatherlink.com 1.10,2013-05-02 17:20:00,
2013-05-02 13:35:00,73.5,60.0,30.14,West,260,0.0,1.0,62,0.00,,,0.00,weatherlink.com 1.10,2013-05-02 17:35:00,
2013-05-02 13:50:00,76.0,60.0,30.14,ESE,119,1.0,2.0,57,0.00,,,0.00,weatherlink.com 1.10,2013-05-02 17:50:00,
2013-05-02 14:05:00,75.3,60.0,30.13,SSE,157,0.0,1.0,60,0.00,,,0.00,weatherlink.com 1.10,2013-05-02 18:05:00,
2013-05-02 14:22:00,73.7,60.0,30.13,WSW,257,0.0,3.0,63,0.00,,,0.00,weatherlink.com 1.10,2013-05-02 18:22:00,
2013-05-02 14:35:00,74.4,60.0,30.13,SSE,153,0.0,4.0,61,0.00,,,0.00,weatherlink.com 1.10,2013-05-02 18:35:00,
2013-05-02 14:50:00,74.6,60.0,30.13,West,278,0.0,4.0,61,0.00,,,0.00,weatherlink.com 1.10,2013-05-02 18:50:00,
2013-05-02 15:05:00,75.1,60.0,30.12,WSW,246,0.0,1.0,60,0.00,,,0.00,weatherlink.com 1.10,2013-05-02 19:05:00,
2013-05-02 15:20:00,74.7,60.0,30.12,West,276,0.0,2.0,60,0.00,,,0.00,weatherlink.com 1.10,2013-05-02 19:20:00,
2013-05-02 15:35:00,75.2,61.0,30.11,SSE,165,0.0,0.0,61,0.00,,,0.00,weatherlink.com 1.10,2013-05-02 19:35:00,
2013-05-02 15:50:00,75.3,61.0,30.11,ENE,65,0.0,2.0,61,0.00,,,0.00,weatherlink.com 1.10,2013-05-02 19:50:00,
2013-05-02 16:05:00,75.0,61.0,30.11,West,259,0.0,1.0,61,0.00,,,0.00,weatherlink.com 1.10,2013-05-02 20:05:00,
2013-05-02 16:20:00,75.0,60.0,30.10,West,261,0.0,1.0,60,0.00,,,0.00,weatherlink.com 1.10,2013-05-02 20:20:00,
2013-05-02 16:35:00,75.2,61.0,30.10,West,272,0.0,1.0,62,0.00,,,0.00,weatherlink.com 1.10,2013-05-02 20:35:00,
2013-05-02 16:50:00,75.0,61.0,30.10,NW,309,0.0,1.0,61,0.00,,,0.00,weatherlink.com 1.10,2013-05-02 20:50:00,
2013-05-02 17:05:00,74.5,59.0,30.10,North,8,0.0,3.0,59,0.00,,,0.00,weatherlink.com 1.10,2013-05-02 21:05:00,
2013-05-02 17:20:00,73.9,59.0,30.09,South,176,0.0,2.0,61,0.00,,,0.00,weatherlink.com 1.10,2013-05-02 21:20:00,
2013-05-02 17:35:00,75.0,60.0,30.08,NNE,14,1.0,2.0,59,0.00,,,0.00,weatherlink.com 1.10,2013-05-02 21:35:00,
2013-05-02 17:50:00,74.9,59.0,30.08,West,273,0.0,3.0,57,0.00,,,0.00,weatherlink.com 1.10,2013-05-02 21:50:00,
2013-05-02 18:07:00,74.3,58.0,30.08,WSW,254,0.0,1.0,58,0.00,,,0.00,weatherlink.com 1.10,2013-05-02 22:07:00,
2013-05-02 18:20:00,73.8,58.0,30.08,West,264,0.0,1.0,59,0.00,,,0.00,weatherlink.com 1.10,2013-05-02 22:20:00,
2013-05-02 18:35:00,73.1,58.0,30.07,SW,224,0.0,2.0,60,0.00,,,0.00,weatherlink.com 1.10,2013-05-02 22:35:00,
2013-05-02 18:50:00,72.7,57.0,30.07,West,264,0.0,2.0,59,0.00,,,0.00,weatherlink.com 1.10,2013-05-02 22:50:00,
2013-05-02 19:05:00,72.0,58.0,30.07,WSW,258,0.0,1.0,61,0.00,,,0.00,weatherlink.com 1.10,2013-05-02 23:05:00,
2013-05-02 19:20:00,70.9,58.0,30.07,WSW,258,0.0,0.0,65,0.00,,,0.00,weatherlink.com 1.10,2013-05-02 23:20:00,
2013-05-02 19:35:00,69.7,59.0,30.07,West,259,0.0,0.0,69,0.00,,,0.00,weatherlink.com 1.10,2013-05-02 23:35:00,
2013-05-02 19:50:00,68.6,59.0,30.08,West,267,0.0,0.0,72,0.00,,,0.00,weatherlink.com 1.10,2013-05-02 23:50:00,
2013-05-02 20:05:00,67.7,58.0,30.08,West,271,0.0,0.0,72,0.00,,,0.00,weatherlink.com 1.10,2013-05-03 00:05:00,
2013-05-02 20:20:00,66.5,58.0,30.08,West,271,0.0,0.0,75,0.00,,,0.00,weatherlink.com 1.10,2013-05-03 00:20:00,
2013-05-02 20:35:00,65.1,58.0,30.09,West,271,0.0,0.0,79,0.00,,,0.00,weatherlink.com 1.10,2013-05-03 00:35:00,
2013-05-02 20:50:00,63.8,58.0,30.09,West,273,0.0,0.0,82,0.00,,,0.00,weatherlink.com 1.10,2013-05-03 00:50:00,
2013-05-02 21:05:00,63.2,58.0,30.10,NNW,341,0.0,0.0,83,0.00,,,0.00,weatherlink.com 1.10,2013-05-03 01:05:00,
2013-05-02 21:20:00,62.8,58.0,30.10,NNW,343,0.0,0.0,83,0.00,,,0.00,weatherlink.com 1.10,2013-05-03 01:20:00,
2013-05-02 21:35:00,62.2,57.0,30.10,NNW,344,0.0,0.0,84,0.00,,,0.00,weatherlink.com 1.10,2013-05-03 01:35:00,
2013-05-02 21:50:00,61.3,57.0,30.11,NNW,344,0.0,0.0,86,0.00,,,0.00,weatherlink.com 1.10,2013-05-03 01:50:00,
2013-05-02 22:05:00,60.9,57.0,30.11,North,359,0.0,0.0,87,0.00,,,0.00,weatherlink.com 1.10,2013-05-03 02:05:00,
2013-05-02 22:20:00,60.5,57.0,30.11,North,359,0.0,0.0,88,0.00,,,0.00,weatherlink.com 1.10,2013-05-03 02:20:00,
2013-05-02 22:35:00,60.5,57.0,30.11,North,4,0.0,0.0,88,0.00,,,0.00,weatherlink.com 1.10,2013-05-03 02:35:00,
2013-05-02 22:50:00,60.3,57.0,30.11,North,4,0.0,0.0,89,0.00,,,0.00,weatherlink.com 1.10,2013-05-03 02:50:00,
2013-05-02 23:05:00,60.3,57.0,30.11,North,6,0.0,0.0,88,0.00,,,0.00,weatherlink.com 1.10,2013-05-03 03:05:00,
2013-05-02 23:20:00,60.0,57.0,30.11,North,6,0.0,0.0,88,0.00,,,0.00,weatherlink.com 1.10,2013-05-03 03:20:00,
2013-05-02 23:35:00,59.5,57.0,30.11,North,6,0.0,0.0,90,0.00,,,0.00,weatherlink.com 1.10,2013-05-03 03:35:00,
2013-05-02 23:50:00,59.0,56.0,30.11,North,6,0.0,0.0,90,0.00,,,0.00,weatherlink.com 1.10,2013-05-03 03:50:00,